Pagrindinis puslapis
METAR-TAF:

METAR-TAF

Oro uostai :

Marakaibas, Venesuela

platuma: 10-34N, ilguma: 071-44W, Aukštis: 66 m

Dabartinis oras

Ataskaita buvo paskelbta 3 valandos ir 38 minutes, ne 22:02 UTC
Temperatūra
Slėgis

METAR: SVMC 262202Z AUTO NIL

Laikas: 21:40 (01:40 UTC)

Prognozė

Ataskaita buvo paskelbta 3 valandos ir 40 minutes, ne 22:00 UTC
Prognozė galioja nuo 27 metu 00 UTC su 28 metu 00 UTC
Vėjas 5 kt iš Rytų
Išsisklaidę debesys ne aukštis 1600 ft
Tapsmas
nuo 27 metu 00 UTC su 27 metu 04 UTC
Vėjas 5 kt iš Pietų
Matomumas: 9000 m
Su prošvaistėmis ne aukštis 1600 ft
Su prošvaistėmis ne aukštis 1600 ft
dulksna

TAF: SVMC 262200Z 2700/2800 10005KT SCT016 TX35/19Z TN24/08Z BECMG 2700/2704 19005KT 9000 -DZ BKN016 BKN016

Orai ataskaitas ir orų prognozės (METAR, TAF).

turimą stotys yra geltonos ir raudonos taškus žemėlapyje.

Perkelti pele per norėdami pamatyti stoties vardą.

Tada spustelėkite, norėdami matyti oro stebėjimo ir prognozės.

Norėdami pakeisti žemėlapį: spustelėkite ant žalios mygtukų su juodo kryžiaus žemyn,; žalią mygtuką su brūkšneliu, jei norite nutolinti; arba žalių rodyklių gretimoms žemėlapius.


METAR-TAF: